This is the latest recevied weather packets stored in our database for station/object IR1CH-3. If no packets are shown the sender has not sent any weather packets the latest 10 day(s).
| Time | Temp. | Humidity | Pressure | Rain* | Wind** | Luminosity | Snow |
|---|---|---|---|---|---|---|---|
| 1777914661 | 17.78° C | 76% | 1016.3 hPa | - | - | - | - |
| 1777912860 | 17.78° C | 87% | 1016.8 hPa | - | - | - | - |
| 1777911060 | 18.33° C | 82% | 1017 hPa | - | - | - | - |
| 1777909260 | 18.89° C | 83% | 1017 hPa | - | - | - | - |
| 1777907459 | 18.89° C | 87% | 1017.2 hPa | - | - | - | - |
| 1777905659 | 18.33° C | 88% | 1017.4 hPa | - | - | - | - |
| 1777903859 | 18.89° C | 83% | 1017.5 hPa | - | - | - | - |
| 1777902058 | 18.89° C | 86% | 1017.8 hPa | - | - | - | - |
| 1777900258 | 19.44° C | 83% | 1018.1 hPa | - | - | - | - |
| 1777898458 | 20° C | 79% | 1018.3 hPa | - | - | - | - |
| 1777896657 | 18.89° C | 86% | 1018.6 hPa | - | - | - | - |
| 1777894857 | 18.89° C | 89% | 1018.7 hPa | - | - | - | - |
| 1777893056 | 18.33° C | 94% | 1018.7 hPa | - | - | - | - |
| 1777891256 | 17.78° C | 94% | 1018.9 hPa | - | - | - | - |
| 1777889456 | 17.78° C | 96% | 1018.9 hPa | - | - | - | - |
| 1777887655 | 17.78° C | 92% | 1018.9 hPa | - | - | - | - |
| 1777885855 | 18.89° C | 83% | 1018.9 hPa | - | - | - | - |
| 1777884055 | 18.33° C | 85% | 1018.7 hPa | - | - | - | - |
| 1777882254 | 18.33° C | 80% | 1018.7 hPa | - | - | - | - |
| 1777880454 | 17.78° C | 78% | 1018.6 hPa | - | - | - | - |
| 1777878654 | 18.33° C | 72% | 1018.1 hPa | - | - | - | - |
| 1777876854 | 17.78° C | 78% | 1017.9 hPa | - | - | - | - |
| 1777875053 | 17.78° C | 77% | 1017.8 hPa | - | - | - | - |
| 1777873253 | 18.33° C | 72% | 1017.5 hPa | - | - | - | - |
| 1777871452 | 15.56° C | 84% | 1017.4 hPa | - | - | - | - |
* Rain since midnight (hover to see other rain measurements)
** Current wind speed in m/s (hover to see current wind gust speed)